San Diego, California
Traffic Map
Current Weather Conditions
San Diego, California
Few Clouds
Few Clouds
72°
Feels Like: 72°
Wind Chill: 72° Ceiling: Unl
Heat Index: 72° Visibility: 10mi
Dew Point: 63° Wind: 6mph
Humidity: 73% Direction: 320° (NW)
Pressure: 30.02in Gusts: 0mph
Raw Report DataKSAN 301151Z 32005KT 10SM FEW006 FEW100 22/17 A3002 RMK AO2 SLP164 T02220172 10239 20217 55005
Traffic Incident Summary
Active as of:
Severity:
Category:
InformationThere was an issue retrieving the traffic information for this location. Please try a different location or try again shortly.
Advertisements
Track Severe Weather on mobile